sensor_id;sensor_type;location;lat;lon;timestamp;P1;durP1;ratioP1;P2;durP2;ratioP2
61702;SDS011;47622;47.726;3.298;2023-10-13T00:00:28;12.55;;;4.57;;
61702;SDS011;47622;47.726;3.298;2023-10-13T00:02:59;11.73;;;5.07;;
61702;SDS011;47622;47.726;3.298;2023-10-13T00:05:30;11.02;;;5.43;;
61702;SDS011;47622;47.726;3.298;2023-10-13T00:07:57;14.48;;;6.10;;
61702;SDS011;47622;47.726;3.298;2023-10-13T00:10:29;16.10;;;5.50;;
61702;SDS011;47622;47.726;3.298;2023-10-13T00:12:56;10.07;;;5.78;;
61702;SDS011;47622;47.726;3.298;2023-10-13T00:15:45;15.90;;;5.68;;
61702;SDS011;47622;47.726;3.298;2023-10-13T00:20:52;9.38;;;5.47;;
61702;SDS011;47622;47.726;3.298;2023-10-13T00:23:21;9.55;;;5.38;;
61702;SDS011;47622;47.726;3.298;2023-10-13T00:25:50;12.35;;;5.80;;
61702;SDS011;47622;47.726;3.298;2023-10-13T00:28:23;11.10;;;5.57;;
61702;SDS011;47622;47.726;3.298;2023-10-13T00:31:00;13.25;;;5.50;;
61702;SDS011;47622;47.726;3.298;2023-10-13T00:33:36;12.40;;;5.70;;
61702;SDS011;47622;47.726;3.298;2023-10-13T00:36:03;10.50;;;5.55;;
61702;SDS011;47622;47.726;3.298;2023-10-13T00:38:30;11.55;;;5.90;;
61702;SDS011;47622;47.726;3.298;2023-10-13T00:40:56;18.40;;;6.80;;
61702;SDS011;47622;47.726;3.298;2023-10-13T00:43:28;13.05;;;5.70;;
61702;SDS011;47622;47.726;3.298;2023-10-13T00:45:57;12.30;;;6.20;;
61702;SDS011;47622;47.726;3.298;2023-10-13T00:48:28;17.38;;;7.15;;
61702;SDS011;47622;47.726;3.298;2023-10-13T00:50:59;9.43;;;4.68;;
61702;SDS011;47622;47.726;3.298;2023-10-13T00:53:29;13.13;;;6.82;;
61702;SDS011;47622;47.726;3.298;2023-10-13T00:56:01;10.57;;;6.07;;
61702;SDS011;47622;47.726;3.298;2023-10-13T00:58:33;13.20;;;5.43;;
61702;SDS011;47622;47.726;3.298;2023-10-13T01:00:59;10.60;;;5.40;;
61702;SDS011;47622;47.726;3.298;2023-10-13T01:03:45;14.23;;;5.68;;
61702;SDS011;47622;47.726;3.298;2023-10-13T01:06:20;9.50;;;6.28;;
61702;SDS011;47622;47.726;3.298;2023-10-13T01:08:59;9.27;;;5.63;;
61702;SDS011;47622;47.726;3.298;2023-10-13T01:11:50;10.57;;;5.18;;
61702;SDS011;47622;47.726;3.298;2023-10-13T01:14:19;12.95;;;5.90;;
61702;SDS011;47622;47.726;3.298;2023-10-13T01:16:46;11.68;;;5.45;;
61702;SDS011;47622;47.726;3.298;2023-10-13T01:19:13;10.27;;;5.47;;
61702;SDS011;47622;47.726;3.298;2023-10-13T01:21:42;12.57;;;5.30;;
61702;SDS011;47622;47.726;3.298;2023-10-13T01:24:09;10.90;;;5.57;;
61702;SDS011;47622;47.726;3.298;2023-10-13T01:26:41;11.98;;;5.47;;
61702;SDS011;47622;47.726;3.298;2023-10-13T01:29:07;15.25;;;5.90;;
61702;SDS011;47622;47.726;3.298;2023-10-13T01:31:40;8.63;;;5.47;;
61702;SDS011;47622;47.726;3.298;2023-10-13T01:34:13;13.77;;;5.55;;
61702;SDS011;47622;47.726;3.298;2023-10-13T01:36:44;7.72;;;5.13;;
61702;SDS011;47622;47.726;3.298;2023-10-13T01:39:10;12.52;;;5.82;;
61702;SDS011;47622;47.726;3.298;2023-10-13T01:41:36;8.20;;;5.60;;
61702;SDS011;47622;47.726;3.298;2023-10-13T01:44:04;8.00;;;4.68;;
61702;SDS011;47622;47.726;3.298;2023-10-13T01:46:30;10.90;;;6.28;;
61702;SDS011;47622;47.726;3.298;2023-10-13T01:48:55;17.00;;;6.00;;
61702;SDS011;47622;47.726;3.298;2023-10-13T01:51:22;9.00;;;5.50;;
61702;SDS011;47622;47.726;3.298;2023-10-13T01:53:48;11.02;;;5.72;;
61702;SDS011;47622;47.726;3.298;2023-10-13T01:56:21;8.77;;;5.05;;
61702;SDS011;47622;47.726;3.298;2023-10-13T01:58:48;9.70;;;5.70;;
61702;SDS011;47622;47.726;3.298;2023-10-13T02:01:14;9.68;;;5.35;;
61702;SDS011;47622;47.726;3.298;2023-10-13T02:03:55;11.80;;;5.57;;
61702;SDS011;47622;47.726;3.298;2023-10-13T02:06:30;10.98;;;5.75;;
61702;SDS011;47622;47.726;3.298;2023-10-13T02:09:00;14.60;;;5.95;;
61702;SDS011;47622;47.726;3.298;2023-10-13T02:11:46;8.77;;;5.63;;
61702;SDS011;47622;47.726;3.298;2023-10-13T02:14:12;9.45;;;4.97;;
61702;SDS011;47622;47.726;3.298;2023-10-13T02:16:41;8.93;;;5.20;;
61702;SDS011;47622;47.726;3.298;2023-10-13T02:19:07;10.20;;;5.50;;
61702;SDS011;47622;47.726;3.298;2023-10-13T02:21:34;9.60;;;5.35;;
61702;SDS011;47622;47.726;3.298;2023-10-13T02:24:07;12.00;;;5.53;;
61702;SDS011;47622;47.726;3.298;2023-10-13T02:26:43;9.77;;;5.78;;
61702;SDS011;47622;47.726;3.298;2023-10-13T02:29:09;13.45;;;5.90;;
61702;SDS011;47622;47.726;3.298;2023-10-13T02:31:39;16.88;;;6.72;;
61702;SDS011;47622;47.726;3.298;2023-10-13T02:34:06;8.60;;;5.53;;
61702;SDS011;47622;47.726;3.298;2023-10-13T02:36:38;10.32;;;5.78;;
61702;SDS011;47622;47.726;3.298;2023-10-13T02:39:19;10.03;;;5.53;;
61702;SDS011;47622;47.726;3.298;2023-10-13T02:42:01;12.95;;;6.05;;
61702;SDS011;47622;47.726;3.298;2023-10-13T02:44:32;13.55;;;5.50;;
61702;SDS011;47622;47.726;3.298;2023-10-13T02:46:58;11.35;;;5.70;;
61702;SDS011;47622;47.726;3.298;2023-10-13T02:49:26;9.27;;;5.53;;
61702;SDS011;47622;47.726;3.298;2023-10-13T02:51:56;12.70;;;5.40;;
61702;SDS011;47622;47.726;3.298;2023-10-13T02:54:25;7.55;;;4.95;;
61702;SDS011;47622;47.726;3.298;2023-10-13T02:56:56;10.13;;;5.80;;
61702;SDS011;47622;47.726;3.298;2023-10-13T02:59:25;8.30;;;5.38;;
61702;SDS011;47622;47.726;3.298;2023-10-13T03:02:21;11.15;;;5.80;;
61702;SDS011;47622;47.726;3.298;2023-10-13T03:04:51;11.80;;;6.28;;
61702;SDS011;47622;47.726;3.298;2023-10-13T03:07:27;9.10;;;6.30;;
61702;SDS011;47622;47.726;3.298;2023-10-13T03:09:55;11.13;;;5.28;;
61702;SDS011;47622;47.726;3.298;2023-10-13T03:12:26;12.77;;;5.68;;
61702;SDS011;47622;47.726;3.298;2023-10-13T03:14:58;9.27;;;5.93;;
61702;SDS011;47622;47.726;3.298;2023-10-13T03:17:38;10.55;;;5.93;;
61702;SDS011;47622;47.726;3.298;2023-10-13T03:20:09;10.00;;;5.60;;
61702;SDS011;47622;47.726;3.298;2023-10-13T03:22:39;10.40;;;5.70;;
61702;SDS011;47622;47.726;3.298;2023-10-13T03:25:05;11.32;;;6.28;;
61702;SDS011;47622;47.726;3.298;2023-10-13T03:27:33;11.80;;;6.80;;
61702;SDS011;47622;47.726;3.298;2023-10-13T03:30:17;11.85;;;5.60;;
61702;SDS011;47622;47.726;3.298;2023-10-13T03:32:43;12.10;;;5.78;;
61702;SDS011;47622;47.726;3.298;2023-10-13T03:35:11;9.77;;;6.47;;
61702;SDS011;47622;47.726;3.298;2023-10-13T03:37:49;12.30;;;6.13;;
61702;SDS011;47622;47.726;3.298;2023-10-13T03:40:16;10.68;;;5.97;;
61702;SDS011;47622;47.726;3.298;2023-10-13T03:45:36;10.45;;;6.13;;
61702;SDS011;47622;47.726;3.298;2023-10-13T03:48:08;14.80;;;5.88;;
61702;SDS011;47622;47.726;3.298;2023-10-13T03:50:39;10.07;;;5.57;;
61702;SDS011;47622;47.726;3.298;2023-10-13T03:53:27;11.07;;;6.50;;
61702;SDS011;47622;47.726;3.298;2023-10-13T03:55:58;10.25;;;5.93;;
61702;SDS011;47622;47.726;3.298;2023-10-13T03:58:40;11.43;;;5.70;;
61702;SDS011;47622;47.726;3.298;2023-10-13T04:01:13;9.38;;;5.70;;
61702;SDS011;47622;47.726;3.298;2023-10-13T04:03:42;10.38;;;5.80;;
61702;SDS011;47622;47.726;3.298;2023-10-13T04:06:28;12.27;;;6.10;;
61702;SDS011;47622;47.726;3.298;2023-10-13T04:09:29;12.18;;;6.13;;
61702;SDS011;47622;47.726;3.298;2023-10-13T04:11:55;9.25;;;6.03;;
61702;SDS011;47622;47.726;3.298;2023-10-13T04:17:14;10.38;;;6.07;;
61702;SDS011;47622;47.726;3.298;2023-10-13T04:19:40;9.98;;;5.43;;
61702;SDS011;47622;47.726;3.298;2023-10-13T04:22:27;9.55;;;5.90;;
61702;SDS011;47622;47.726;3.298;2023-10-13T04:25:11;13.75;;;6.20;;
61702;SDS011;47622;47.726;3.298;2023-10-13T04:27:59;10.52;;;5.90;;
61702;SDS011;47622;47.726;3.298;2023-10-13T04:30:44;9.32;;;5.82;;
61702;SDS011;47622;47.726;3.298;2023-10-13T04:36:09;8.88;;;6.05;;
61702;SDS011;47622;47.726;3.298;2023-10-13T04:38:43;11.13;;;6.65;;
61702;SDS011;47622;47.726;3.298;2023-10-13T04:41:21;12.48;;;6.10;;
61702;SDS011;47622;47.726;3.298;2023-10-13T04:43:50;11.65;;;6.10;;
61702;SDS011;47622;47.726;3.298;2023-10-13T04:46:23;8.60;;;5.65;;
61702;SDS011;47622;47.726;3.298;2023-10-13T04:49:12;11.95;;;6.13;;
61702;SDS011;47622;47.726;3.298;2023-10-13T04:51:56;11.85;;;6.35;;
61702;SDS011;47622;47.726;3.298;2023-10-13T04:54:46;11.13;;;6.28;;
61702;SDS011;47622;47.726;3.298;2023-10-13T04:59:49;8.88;;;5.47;;
61702;SDS011;47622;47.726;3.298;2023-10-13T05:02:34;11.82;;;6.20;;
61702;SDS011;47622;47.726;3.298;2023-10-13T05:05:05;9.18;;;5.72;;
61702;SDS011;47622;47.726;3.298;2023-10-13T05:07:39;9.25;;;6.18;;
61702;SDS011;47622;47.726;3.298;2023-10-13T05:10:27;12.32;;;6.00;;
61702;SDS011;47622;47.726;3.298;2023-10-13T05:13:11;10.23;;;5.95;;
61702;SDS011;47622;47.726;3.298;2023-10-13T05:15:55;10.80;;;5.72;;
61702;SDS011;47622;47.726;3.298;2023-10-13T05:18:39;9.73;;;6.18;;
61702;SDS011;47622;47.726;3.298;2023-10-13T05:21:23;13.75;;;5.90;;
61702;SDS011;47622;47.726;3.298;2023-10-13T05:24:07;10.98;;;5.60;;
61702;SDS011;47622;47.726;3.298;2023-10-13T05:26:52;10.88;;;6.07;;
61702;SDS011;47622;47.726;3.298;2023-10-13T05:29:40;12.10;;;6.20;;
61702;SDS011;47622;47.726;3.298;2023-10-13T05:32:25;9.70;;;5.55;;
61702;SDS011;47622;47.726;3.298;2023-10-13T05:35:09;11.90;;;5.90;;
61702;SDS011;47622;47.726;3.298;2023-10-13T05:37:53;13.82;;;5.63;;
61702;SDS011;47622;47.726;3.298;2023-10-13T05:40:37;8.68;;;5.85;;
61702;SDS011;47622;47.726;3.298;2023-10-13T05:43:21;11.30;;;6.13;;
61702;SDS011;47622;47.726;3.298;2023-10-13T05:46:06;9.23;;;5.80;;
61702;SDS011;47622;47.726;3.298;2023-10-13T05:48:50;9.23;;;6.07;;
61702;SDS011;47622;47.726;3.298;2023-10-13T05:51:28;9.90;;;5.85;;
61702;SDS011;47622;47.726;3.298;2023-10-13T05:54:00;11.55;;;5.93;;
61702;SDS011;47622;47.726;3.298;2023-10-13T05:56:42;11.93;;;6.20;;
61702;SDS011;47622;47.726;3.298;2023-10-13T05:59:27;16.40;;;6.28;;
61702;SDS011;47622;47.726;3.298;2023-10-13T06:02:15;14.40;;;6.32;;
61702;SDS011;47622;47.726;3.298;2023-10-13T06:05:07;10.70;;;6.35;;
61702;SDS011;47622;47.726;3.298;2023-10-13T06:07:53;10.05;;;5.43;;
61702;SDS011;47622;47.726;3.298;2023-10-13T06:10:37;12.68;;;5.95;;
61702;SDS011;47622;47.726;3.298;2023-10-13T06:13:22;10.07;;;5.70;;
61702;SDS011;47622;47.726;3.298;2023-10-13T06:16:07;11.98;;;6.03;;
61702;SDS011;47622;47.726;3.298;2023-10-13T06:18:57;14.27;;;5.70;;
61702;SDS011;47622;47.726;3.298;2023-10-13T06:21:42;10.30;;;5.78;;
61702;SDS011;47622;47.726;3.298;2023-10-13T06:24:27;8.23;;;5.63;;
61702;SDS011;47622;47.726;3.298;2023-10-13T06:27:11;8.15;;;5.70;;
61702;SDS011;47622;47.726;3.298;2023-10-13T06:29:55;6.90;;;5.82;;
61702;SDS011;47622;47.726;3.298;2023-10-13T06:32:21;10.90;;;5.70;;
61702;SDS011;47622;47.726;3.298;2023-10-13T06:34:51;12.45;;;6.28;;
61702;SDS011;47622;47.726;3.298;2023-10-13T06:37:23;8.90;;;5.78;;
61702;SDS011;47622;47.726;3.298;2023-10-13T06:39:58;11.25;;;5.88;;
61702;SDS011;47622;47.726;3.298;2023-10-13T06:42:31;8.73;;;5.60;;
61702;SDS011;47622;47.726;3.298;2023-10-13T06:45:00;9.73;;;5.63;;
61702;SDS011;47622;47.726;3.298;2023-10-13T06:47:28;9.05;;;5.45;;
61702;SDS011;47622;47.726;3.298;2023-10-13T06:49:54;8.55;;;6.00;;
61702;SDS011;47622;47.726;3.298;2023-10-13T06:52:22;13.23;;;5.90;;
61702;SDS011;47622;47.726;3.298;2023-10-13T06:54:51;11.30;;;5.38;;
61702;SDS011;47622;47.726;3.298;2023-10-13T06:57:18;10.85;;;5.97;;
61702;SDS011;47622;47.726;3.298;2023-10-13T06:59:47;14.32;;;5.53;;
61702;SDS011;47622;47.726;3.298;2023-10-13T07:02:13;9.00;;;5.20;;
61702;SDS011;47622;47.726;3.298;2023-10-13T07:04:48;8.45;;;5.25;;
61702;SDS011;47622;47.726;3.298;2023-10-13T07:07:15;10.05;;;5.30;;
61702;SDS011;47622;47.726;3.298;2023-10-13T07:09:42;8.02;;;5.28;;
61702;SDS011;47622;47.726;3.298;2023-10-13T07:12:23;10.88;;;5.88;;
61702;SDS011;47622;47.726;3.298;2023-10-13T07:14:51;17.33;;;5.65;;
61702;SDS011;47622;47.726;3.298;2023-10-13T07:17:21;13.00;;;5.72;;
61702;SDS011;47622;47.726;3.298;2023-10-13T07:19:53;9.80;;;5.38;;
61702;SDS011;47622;47.726;3.298;2023-10-13T07:22:19;10.75;;;5.28;;
61702;SDS011;47622;47.726;3.298;2023-10-13T07:24:46;13.05;;;5.82;;
61702;SDS011;47622;47.726;3.298;2023-10-13T07:27:16;15.38;;;6.22;;
61702;SDS011;47622;47.726;3.298;2023-10-13T07:29:49;9.65;;;5.70;;
61702;SDS011;47622;47.726;3.298;2023-10-13T07:32:30;8.93;;;5.53;;
61702;SDS011;47622;47.726;3.298;2023-10-13T07:34:59;6.38;;;4.75;;
61702;SDS011;47622;47.726;3.298;2023-10-13T07:37:26;11.13;;;6.18;;
61702;SDS011;47622;47.726;3.298;2023-10-13T07:39:54;17.17;;;5.35;;
61702;SDS011;47622;47.726;3.298;2023-10-13T07:42:27;11.68;;;5.28;;
61702;SDS011;47622;47.726;3.298;2023-10-13T07:45:05;11.23;;;4.95;;
61702;SDS011;47622;47.726;3.298;2023-10-13T07:47:31;8.80;;;4.97;;
61702;SDS011;47622;47.726;3.298;2023-10-13T07:49:59;11.60;;;5.45;;
61702;SDS011;47622;47.726;3.298;2023-10-13T07:52:24;10.02;;;5.43;;
61702;SDS011;47622;47.726;3.298;2023-10-13T07:55:01;8.38;;;4.50;;
61702;SDS011;47622;47.726;3.298;2023-10-13T07:57:45;7.20;;;4.90;;
61702;SDS011;47622;47.726;3.298;2023-10-13T08:00:23;8.63;;;4.68;;
61702;SDS011;47622;47.726;3.298;2023-10-13T08:03:08;11.45;;;4.88;;
61702;SDS011;47622;47.726;3.298;2023-10-13T08:05:42;10.73;;;4.40;;
61702;SDS011;47622;47.726;3.298;2023-10-13T08:08:30;8.13;;;4.30;;
61702;SDS011;47622;47.726;3.298;2023-10-13T08:11:09;9.20;;;4.57;;
61702;SDS011;47622;47.726;3.298;2023-10-13T08:16:21;10.52;;;4.20;;
61702;SDS011;47622;47.726;3.298;2023-10-13T08:19:15;7.95;;;3.85;;
61702;SDS011;47622;47.726;3.298;2023-10-13T08:21:46;7.53;;;3.95;;
61702;SDS011;47622;47.726;3.298;2023-10-13T08:24:22;7.60;;;3.97;;
61702;SDS011;47622;47.726;3.298;2023-10-13T08:27:15;7.13;;;3.70;;
61702;SDS011;47622;47.726;3.298;2023-10-13T08:30:02;7.90;;;4.18;;
61702;SDS011;47622;47.726;3.298;2023-10-13T08:32:55;9.10;;;4.05;;
61702;SDS011;47622;47.726;3.298;2023-10-13T08:35:22;7.30;;;4.32;;
61702;SDS011;47622;47.726;3.298;2023-10-13T08:37:59;7.13;;;3.40;;
61702;SDS011;47622;47.726;3.298;2023-10-13T08:40:28;7.05;;;3.97;;
61702;SDS011;47622;47.726;3.298;2023-10-13T08:43:14;10.90;;;4.28;;
61702;SDS011;47622;47.726;3.298;2023-10-13T08:45:42;6.43;;;3.78;;
61702;SDS011;47622;47.726;3.298;2023-10-13T08:48:09;12.38;;;4.35;;
61702;SDS011;47622;47.726;3.298;2023-10-13T08:50:37;8.10;;;4.30;;
61702;SDS011;47622;47.726;3.298;2023-10-13T08:53:15;8.90;;;4.10;;
61702;SDS011;47622;47.726;3.298;2023-10-13T08:58:28;7.93;;;3.72;;
61702;SDS011;47622;47.726;3.298;2023-10-13T09:01:14;11.48;;;3.83;;
61702;SDS011;47622;47.726;3.298;2023-10-13T09:04:06;6.78;;;3.80;;
61702;SDS011;47622;47.726;3.298;2023-10-13T09:06:53;5.40;;;3.75;;
61702;SDS011;47622;47.726;3.298;2023-10-13T09:10:07;12.07;;;3.85;;
61702;SDS011;47622;47.726;3.298;2023-10-13T09:14:52;8.90;;;3.22;;
61702;SDS011;47622;47.726;3.298;2023-10-13T09:20:04;8.38;;;3.80;;
61702;SDS011;47622;47.726;3.298;2023-10-13T09:22:51;6.57;;;3.30;;
61702;SDS011;47622;47.726;3.298;2023-10-13T09:25:29;12.75;;;3.95;;
61702;SDS011;47622;47.726;3.298;2023-10-13T09:28:00;5.72;;;3.40;;
61702;SDS011;47622;47.726;3.298;2023-10-13T09:30:47;11.38;;;3.90;;
61702;SDS011;47622;47.726;3.298;2023-10-13T09:33:19;9.07;;;3.40;;
61702;SDS011;47622;47.726;3.298;2023-10-13T09:36:06;9.98;;;3.50;;
61702;SDS011;47622;47.726;3.298;2023-10-13T09:38:33;8.30;;;3.58;;
61702;SDS011;47622;47.726;3.298;2023-10-13T09:41:03;9.93;;;3.80;;
61702;SDS011;47622;47.726;3.298;2023-10-13T09:43:51;10.13;;;3.42;;
61702;SDS011;47622;47.726;3.298;2023-10-13T09:46:19;11.18;;;3.53;;
61702;SDS011;47622;47.726;3.298;2023-10-13T09:48:48;13.68;;;3.38;;
61702;SDS011;47622;47.726;3.298;2023-10-13T09:51:29;14.75;;;3.85;;
61702;SDS011;47622;47.726;3.298;2023-10-13T09:54:04;9.25;;;3.85;;
61702;SDS011;47622;47.726;3.298;2023-10-13T09:56:39;9.88;;;3.33;;
61702;SDS011;47622;47.726;3.298;2023-10-13T10:02:18;11.98;;;3.65;;
61702;SDS011;47622;47.726;3.298;2023-10-13T10:04:56;14.65;;;4.38;;
61702;SDS011;47622;47.726;3.298;2023-10-13T10:07:42;10.35;;;3.70;;
61702;SDS011;47622;47.726;3.298;2023-10-13T10:10:13;7.40;;;3.05;;
61702;SDS011;47622;47.726;3.298;2023-10-13T10:12:49;8.35;;;3.60;;
61702;SDS011;47622;47.726;3.298;2023-10-13T10:18:19;9.02;;;3.70;;
61702;SDS011;47622;47.726;3.298;2023-10-13T10:20:50;9.77;;;3.80;;
61702;SDS011;47622;47.726;3.298;2023-10-13T10:23:23;7.45;;;3.50;;
61702;SDS011;47622;47.726;3.298;2023-10-13T10:25:53;13.27;;;3.90;;
61702;SDS011;47622;47.726;3.298;2023-10-13T10:28:34;10.25;;;3.50;;
61702;SDS011;47622;47.726;3.298;2023-10-13T10:31:05;13.52;;;3.67;;
61702;SDS011;47622;47.726;3.298;2023-10-13T10:33:50;6.75;;;3.15;;
61702;SDS011;47622;47.726;3.298;2023-10-13T10:36:16;9.75;;;3.40;;
61702;SDS011;47622;47.726;3.298;2023-10-13T10:38:52;12.20;;;3.60;;
61702;SDS011;47622;47.726;3.298;2023-10-13T10:41:30;12.98;;;4.47;;
61702;SDS011;47622;47.726;3.298;2023-10-13T10:44:14;9.88;;;3.65;;
61702;SDS011;47622;47.726;3.298;2023-10-13T10:47:11;9.63;;;3.50;;
61702;SDS011;47622;47.726;3.298;2023-10-13T10:50:03;10.43;;;3.28;;
61702;SDS011;47622;47.726;3.298;2023-10-13T10:52:33;11.13;;;3.50;;
61702;SDS011;47622;47.726;3.298;2023-10-13T10:55:04;7.80;;;3.03;;
61702;SDS011;47622;47.726;3.298;2023-10-13T10:57:34;10.63;;;3.88;;
61702;SDS011;47622;47.726;3.298;2023-10-13T11:00:03;12.95;;;3.40;;
61702;SDS011;47622;47.726;3.298;2023-10-13T11:02:42;8.93;;;3.72;;
61702;SDS011;47622;47.726;3.298;2023-10-13T11:05:09;11.45;;;3.20;;
61702;SDS011;47622;47.726;3.298;2023-10-13T11:07:35;10.85;;;3.60;;
61702;SDS011;47622;47.726;3.298;2023-10-13T11:10:07;6.68;;;2.85;;
61702;SDS011;47622;47.726;3.298;2023-10-13T11:12:58;9.02;;;3.38;;
61702;SDS011;47622;47.726;3.298;2023-10-13T11:15:46;9.57;;;3.38;;
61702;SDS011;47622;47.726;3.298;2023-10-13T11:18:13;10.50;;;3.40;;
61702;SDS011;47622;47.726;3.298;2023-10-13T11:20:48;9.90;;;3.30;;
61702;SDS011;47622;47.726;3.298;2023-10-13T11:23:20;10.63;;;3.72;;
61702;SDS011;47622;47.726;3.298;2023-10-13T11:25:59;7.63;;;3.45;;
61702;SDS011;47622;47.726;3.298;2023-10-13T11:28:25;9.40;;;3.35;;
61702;SDS011;47622;47.726;3.298;2023-10-13T11:30:57;9.90;;;3.40;;
61702;SDS011;47622;47.726;3.298;2023-10-13T11:33:27;6.15;;;3.05;;
61702;SDS011;47622;47.726;3.298;2023-10-13T11:35:53;15.50;;;4.20;;
61702;SDS011;47622;47.726;3.298;2023-10-13T11:38:21;11.05;;;3.40;;
61702;SDS011;47622;47.726;3.298;2023-10-13T11:43:30;14.55;;;3.55;;
61702;SDS011;47622;47.726;3.298;2023-10-13T11:48:38;9.23;;;3.53;;
61702;SDS011;47622;47.726;3.298;2023-10-13T11:51:07;10.07;;;3.78;;
61702;SDS011;47622;47.726;3.298;2023-10-13T11:53:42;8.48;;;3.40;;
61702;SDS011;47622;47.726;3.298;2023-10-13T11:56:09;6.78;;;2.80;;
61702;SDS011;47622;47.726;3.298;2023-10-13T11:58:38;9.65;;;3.08;;
61702;SDS011;47622;47.726;3.298;2023-10-13T12:01:05;8.65;;;3.40;;
61702;SDS011;47622;47.726;3.298;2023-10-13T12:03:43;14.05;;;3.60;;
61702;SDS011;47622;47.726;3.298;2023-10-13T12:06:34;5.80;;;3.10;;
61702;SDS011;47622;47.726;3.298;2023-10-13T12:09:00;4.90;;;3.00;;
61702;SDS011;47622;47.726;3.298;2023-10-13T12:11:50;12.02;;;3.50;;
61702;SDS011;47622;47.726;3.298;2023-10-13T12:14:16;13.45;;;3.40;;
61702;SDS011;47622;47.726;3.298;2023-10-13T12:16:44;8.27;;;3.40;;
61702;SDS011;47622;47.726;3.298;2023-10-13T12:19:16;12.65;;;4.13;;
61702;SDS011;47622;47.726;3.298;2023-10-13T12:21:45;21.35;;;4.13;;
61702;SDS011;47622;47.726;3.298;2023-10-13T12:24:12;9.55;;;3.83;;
61702;SDS011;47622;47.726;3.298;2023-10-13T12:26:48;11.90;;;3.50;;
61702;SDS011;47622;47.726;3.298;2023-10-13T12:29:22;9.25;;;3.67;;
61702;SDS011;47622;47.726;3.298;2023-10-13T12:31:53;12.88;;;3.97;;
61702;SDS011;47622;47.726;3.298;2023-10-13T12:34:36;9.98;;;3.30;;
61702;SDS011;47622;47.726;3.298;2023-10-13T12:37:20;11.80;;;3.72;;
61702;SDS011;47622;47.726;3.298;2023-10-13T12:40:01;11.75;;;3.58;;
61702;SDS011;47622;47.726;3.298;2023-10-13T12:42:50;9.60;;;3.30;;
61702;SDS011;47622;47.726;3.298;2023-10-13T12:45:41;11.32;;;3.38;;
61702;SDS011;47622;47.726;3.298;2023-10-13T12:48:32;8.80;;;3.20;;
61702;SDS011;47622;47.726;3.298;2023-10-13T12:51:17;9.38;;;3.20;;
61702;SDS011;47622;47.726;3.298;2023-10-13T12:53:50;10.35;;;3.33;;
61702;SDS011;47622;47.726;3.298;2023-10-13T12:56:17;11.93;;;3.40;;
61702;SDS011;47622;47.726;3.298;2023-10-13T12:58:51;13.05;;;3.40;;
61702;SDS011;47622;47.726;3.298;2023-10-13T13:01:24;8.23;;;3.30;;
61702;SDS011;47622;47.726;3.298;2023-10-13T13:03:58;13.68;;;3.25;;
61702;SDS011;47622;47.726;3.298;2023-10-13T13:06:24;10.02;;;3.25;;
61702;SDS011;47622;47.726;3.298;2023-10-13T13:08:58;8.00;;;3.10;;
61702;SDS011;47622;47.726;3.298;2023-10-13T13:11:25;10.40;;;3.00;;
61702;SDS011;47622;47.726;3.298;2023-10-13T13:13:54;13.45;;;3.78;;
61702;SDS011;47622;47.726;3.298;2023-10-13T13:16:20;7.05;;;3.45;;
61702;SDS011;47622;47.726;3.298;2023-10-13T13:18:55;8.15;;;3.25;;
61702;SDS011;47622;47.726;3.298;2023-10-13T13:21:21;11.80;;;3.70;;
61702;SDS011;47622;47.726;3.298;2023-10-13T13:23:50;16.80;;;4.03;;
61702;SDS011;47622;47.726;3.298;2023-10-13T13:26:16;10.27;;;3.13;;
61702;SDS011;47622;47.726;3.298;2023-10-13T13:28:43;7.93;;;2.95;;
61702;SDS011;47622;47.726;3.298;2023-10-13T13:31:09;11.57;;;3.13;;
61702;SDS011;47622;47.726;3.298;2023-10-13T13:33:40;10.02;;;3.35;;
61702;SDS011;47622;47.726;3.298;2023-10-13T13:36:08;10.45;;;3.20;;
61702;SDS011;47622;47.726;3.298;2023-10-13T13:38:41;8.93;;;2.83;;
61702;SDS011;47622;47.726;3.298;2023-10-13T13:41:14;14.20;;;3.80;;
61702;SDS011;47622;47.726;3.298;2023-10-13T13:43:43;14.57;;;3.60;;
61702;SDS011;47622;47.726;3.298;2023-10-13T13:46:21;11.13;;;3.80;;
61702;SDS011;47622;47.726;3.298;2023-10-13T13:48:53;11.18;;;3.38;;
61702;SDS011;47622;47.726;3.298;2023-10-13T13:51:31;8.23;;;3.28;;
61702;SDS011;47622;47.726;3.298;2023-10-13T13:53:58;6.55;;;3.33;;
61702;SDS011;47622;47.726;3.298;2023-10-13T13:56:25;17.20;;;3.42;;
61702;SDS011;47622;47.726;3.298;2023-10-13T13:58:53;7.82;;;3.10;;
61702;SDS011;47622;47.726;3.298;2023-10-13T14:01:21;12.05;;;3.05;;
61702;SDS011;47622;47.726;3.298;2023-10-13T14:03:50;10.40;;;3.38;;
61702;SDS011;47622;47.726;3.298;2023-10-13T14:06:16;7.28;;;3.05;;
61702;SDS011;47622;47.726;3.298;2023-10-13T14:08:46;8.45;;;3.15;;
61702;SDS011;47622;47.726;3.298;2023-10-13T14:11:14;14.55;;;3.60;;
61702;SDS011;47622;47.726;3.298;2023-10-13T14:13:59;9.27;;;3.67;;
61702;SDS011;47622;47.726;3.298;2023-10-13T14:16:29;11.38;;;4.07;;
61702;SDS011;47622;47.726;3.298;2023-10-13T14:18:55;12.27;;;3.58;;
61702;SDS011;47622;47.726;3.298;2023-10-13T14:21:20;11.02;;;3.03;;
61702;SDS011;47622;47.726;3.298;2023-10-13T14:23:50;10.00;;;3.58;;
61702;SDS011;47622;47.726;3.298;2023-10-13T14:26:19;7.85;;;3.30;;
61702;SDS011;47622;47.726;3.298;2023-10-13T14:28:46;7.20;;;2.88;;
61702;SDS011;47622;47.726;3.298;2023-10-13T14:31:35;11.23;;;3.40;;
61702;SDS011;47622;47.726;3.298;2023-10-13T14:34:02;9.10;;;3.30;;
61702;SDS011;47622;47.726;3.298;2023-10-13T14:36:28;12.27;;;3.25;;
61702;SDS011;47622;47.726;3.298;2023-10-13T14:38:57;7.00;;;3.13;;
61702;SDS011;47622;47.726;3.298;2023-10-13T14:41:22;11.55;;;3.63;;
61702;SDS011;47622;47.726;3.298;2023-10-13T14:43:48;8.07;;;3.53;;
61702;SDS011;47622;47.726;3.298;2023-10-13T14:46:14;8.93;;;3.30;;
61702;SDS011;47622;47.726;3.298;2023-10-13T14:48:41;11.15;;;3.30;;
61702;SDS011;47622;47.726;3.298;2023-10-13T14:51:10;9.30;;;3.50;;
61702;SDS011;47622;47.726;3.298;2023-10-13T14:53:39;8.13;;;3.65;;
61702;SDS011;47622;47.726;3.298;2023-10-13T14:56:12;6.75;;;2.83;;
61702;SDS011;47622;47.726;3.298;2023-10-13T14:58:38;9.05;;;3.90;;
61702;SDS011;47622;47.726;3.298;2023-10-13T15:01:14;6.60;;;3.30;;
61702;SDS011;47622;47.726;3.298;2023-10-13T15:03:50;8.10;;;3.30;;
61702;SDS011;47622;47.726;3.298;2023-10-13T15:06:26;8.77;;;3.08;;
61702;SDS011;47622;47.726;3.298;2023-10-13T15:08:56;10.57;;;3.38;;
61702;SDS011;47622;47.726;3.298;2023-10-13T15:11:22;8.77;;;3.38;;
61702;SDS011;47622;47.726;3.298;2023-10-13T15:13:54;10.23;;;3.47;;
61702;SDS011;47622;47.726;3.298;2023-10-13T15:16:25;9.32;;;3.47;;
61702;SDS011;47622;47.726;3.298;2023-10-13T15:18:52;6.68;;;2.92;;
61702;SDS011;47622;47.726;3.298;2023-10-13T15:21:18;10.63;;;3.97;;
61702;SDS011;47622;47.726;3.298;2023-10-13T15:23:48;10.77;;;3.90;;
61702;SDS011;47622;47.726;3.298;2023-10-13T15:26:16;10.40;;;3.55;;
61702;SDS011;47622;47.726;3.298;2023-10-13T15:28:42;7.95;;;3.22;;
61702;SDS011;47622;47.726;3.298;2023-10-13T15:31:17;12.32;;;3.25;;
61702;SDS011;47622;47.726;3.298;2023-10-13T15:33:58;11.10;;;3.97;;
61702;SDS011;47622;47.726;3.298;2023-10-13T15:36:24;8.15;;;3.63;;
61702;SDS011;47622;47.726;3.298;2023-10-13T15:38:51;6.95;;;3.58;;
61702;SDS011;47622;47.726;3.298;2023-10-13T15:41:24;13.32;;;4.30;;
61702;SDS011;47622;47.726;3.298;2023-10-13T15:43:51;9.20;;;3.90;;
61702;SDS011;47622;47.726;3.298;2023-10-13T15:46:23;10.25;;;3.78;;
61702;SDS011;47622;47.726;3.298;2023-10-13T15:48:50;10.73;;;3.78;;
61702;SDS011;47622;47.726;3.298;2023-10-13T15:51:16;13.88;;;4.43;;
61702;SDS011;47622;47.726;3.298;2023-10-13T15:53:42;9.93;;;3.72;;
61702;SDS011;47622;47.726;3.298;2023-10-13T15:56:09;6.95;;;3.90;;